createdAt,value
2022-12-08T15:58:54.044Z,5.70
2022-12-08T15:59:51.265Z,5.70
2022-12-08T16:00:53.538Z,5.80
2022-12-08T16:01:52.354Z,5.40
2022-12-08T16:03:22.591Z,5.80
2022-12-08T16:05:33.919Z,4.50
2022-12-08T16:06:31.112Z,6.30
2022-12-08T16:07:22.949Z,6.10
2022-12-08T16:07:57.612Z,7.10
2022-12-08T16:09:06.225Z,8.70
2022-12-08T16:09:53.316Z,5.20
2022-12-08T16:11:34.156Z,5.20
2022-12-08T16:12:10.174Z,6.00
2022-12-08T16:13:58.955Z,5.60
2022-12-08T16:16:00.259Z,5.00
2022-12-08T16:16:53.161Z,5.60
2022-12-08T16:17:51.120Z,6.80
2022-12-08T16:18:51.149Z,5.00
2022-12-08T16:19:51.128Z,6.30
2022-12-08T16:22:44.503Z,4.00
2022-12-08T16:22:59.591Z,4.50
2022-12-08T16:23:53.114Z,4.70
2022-12-08T16:24:51.082Z,4.40
2022-12-08T16:26:17.313Z,4.00
2022-12-08T16:28:08.450Z,3.40
2022-12-08T16:28:54.712Z,3.10
2022-12-08T16:29:52.035Z,5.40
2022-12-08T16:30:51.023Z,4.10
2022-12-08T16:31:51.085Z,5.20
2022-12-08T16:32:51.102Z,3.60
2022-12-08T16:33:51.017Z,4.50
2022-12-08T16:34:50.993Z,4.20
2022-12-08T16:35:51.023Z,6.30
2022-12-08T16:36:51.013Z,4.80
2022-12-08T16:37:51.027Z,5.00
2022-12-08T16:38:50.978Z,5.10
2022-12-08T16:39:51.042Z,5.30
2022-12-08T16:40:50.985Z,4.40
2022-12-08T16:41:50.979Z,4.50
2022-12-08T16:42:50.925Z,4.60
2022-12-08T16:43:51.393Z,5.20
2022-12-08T16:44:51.921Z,4.50
2022-12-08T16:45:50.971Z,5.40
2022-12-08T16:46:50.948Z,5.10
2022-12-08T16:47:50.925Z,5.10
2022-12-08T16:48:50.974Z,6.00
2022-12-08T16:49:50.904Z,5.20
2022-12-08T16:50:50.871Z,5.20
2022-12-08T16:51:50.904Z,6.10
2022-12-08T16:52:50.869Z,6.60
2022-12-08T16:53:50.876Z,5.30
2022-12-08T16:54:50.868Z,6.00
2022-12-08T16:55:50.901Z,5.90
2022-12-08T16:56:50.839Z,5.40
2022-12-08T16:57:50.810Z,6.30
2022-12-08T16:58:50.864Z,5.90
2022-12-08T16:59:50.826Z,4.50
2022-12-08T17:00:50.833Z,5.30
2022-12-08T17:01:50.806Z,4.70
2022-12-08T17:02:50.850Z,4.50
2022-12-08T17:04:07.457Z,5.60
2022-12-08T17:04:52.850Z,5.50
2022-12-08T17:05:50.800Z,5.80
2022-12-08T17:06:50.776Z,5.30
2022-12-08T17:07:50.845Z,6.50
2022-12-08T17:08:50.771Z,8.10
2022-12-08T17:09:50.781Z,12.40
2022-12-08T17:10:50.743Z,10.70
2022-12-08T17:11:50.755Z,7.50
2022-12-08T17:12:51.716Z,5.00
2022-12-08T17:13:50.744Z,6.20
2022-12-08T17:14:50.738Z,5.40
2022-12-08T17:15:50.766Z,5.40
2022-12-08T17:16:50.730Z,5.40
2022-12-08T17:17:50.718Z,6.30
2022-12-08T17:18:50.687Z,5.70
2022-12-08T17:19:50.663Z,5.70
2022-12-08T17:20:50.683Z,5.80
2022-12-08T17:21:50.683Z,6.00
2022-12-08T17:22:50.686Z,5.90
2022-12-08T17:23:50.654Z,5.30
2022-12-08T17:24:50.715Z,5.70
2022-12-08T17:25:50.630Z,6.30
2022-12-08T17:26:50.638Z,7.50
2022-12-08T17:27:50.659Z,6.20
2022-12-08T17:29:06.046Z,6.30
2022-12-08T17:29:52.636Z,6.60
2022-12-08T17:30:50.648Z,6.10
2022-12-08T17:31:50.661Z,5.10
2022-12-08T17:32:50.576Z,5.30
2022-12-08T17:33:50.589Z,5.90
2022-12-08T17:34:50.590Z,7.10
2022-12-08T17:35:50.564Z,5.60
2022-12-08T17:36:50.561Z,6.80
2022-12-08T17:37:50.577Z,5.60
2022-12-08T17:38:50.543Z,7.00
2022-12-08T17:39:50.534Z,6.20
2022-12-08T17:40:54.043Z,7.20
2022-12-08T17:41:52.663Z,6.10
2022-12-08T17:42:50.530Z,8.40
2022-12-08T17:43:50.560Z,6.20
2022-12-08T17:44:50.509Z,7.20
2022-12-08T17:45:50.548Z,8.00
2022-12-08T17:46:52.993Z,7.20
2022-12-08T17:47:51.486Z,7.90
2022-12-08T17:48:50.485Z,7.20
2022-12-08T17:49:50.452Z,7.00
2022-12-08T17:50:50.453Z,6.40
2022-12-08T17:51:50.453Z,7.80
2022-12-08T17:52:50.440Z,9.00
2022-12-08T17:53:50.434Z,6.60
2022-12-08T17:54:50.419Z,8.10
2022-12-08T17:55:50.595Z,7.20
2022-12-08T17:56:50.398Z,6.80
2022-12-08T17:57:50.397Z,8.10
2022-12-08T17:58:54.579Z,10.30
2022-12-08T17:59:51.400Z,11.30
2022-12-08T18:00:50.456Z,12.60
2022-12-08T18:01:50.430Z,30.50
2022-12-08T18:02:50.567Z,31.70
2022-12-08T18:03:50.425Z,10.50
2022-12-08T18:04:50.369Z,9.80
2022-12-08T18:05:50.362Z,8.20
2022-12-08T18:06:50.352Z,9.70
2022-12-08T18:07:50.382Z,9.30
2022-12-08T18:08:50.340Z,9.80
2022-12-08T18:09:50.350Z,8.80
2022-12-08T18:10:50.323Z,9.90
2022-12-08T18:11:50.321Z,9.20
2022-12-08T18:12:50.305Z,9.40
2022-12-08T18:13:50.286Z,11.60
2022-12-08T18:14:50.429Z,9.60
2022-12-08T18:15:50.290Z,10.30
2022-12-08T18:16:50.332Z,8.80
2022-12-08T18:17:50.268Z,10.20
2022-12-08T18:18:50.280Z,9.50
2022-12-08T18:19:50.308Z,8.00
2022-12-08T18:20:50.291Z,7.90
2022-12-08T18:21:50.269Z,8.50
2022-12-08T18:22:50.246Z,8.60
2022-12-08T18:23:50.232Z,9.10
2022-12-08T18:24:50.245Z,8.40
2022-12-08T18:25:50.215Z,11.00
2022-12-08T18:26:50.257Z,8.40
2022-12-08T18:27:50.205Z,9.00
2022-12-08T18:28:50.229Z,9.40
2022-12-08T18:29:50.193Z,9.90
2022-12-08T18:30:50.298Z,9.50
2022-12-08T18:31:50.182Z,10.00
2022-12-08T18:32:55.736Z,10.00
2022-12-08T18:33:52.204Z,8.40
2022-12-08T18:34:50.194Z,9.10
2022-12-08T18:35:50.180Z,10.20
2022-12-08T18:36:50.153Z,8.80
2022-12-08T18:37:50.164Z,8.90
2022-12-08T18:38:50.147Z,9.10
2022-12-08T18:39:50.166Z,8.90
2022-12-08T18:40:50.123Z,9.70
2022-12-08T18:41:50.101Z,12.40
2022-12-08T18:42:50.104Z,9.20
2022-12-08T18:43:50.121Z,10.10
2022-12-08T18:44:50.097Z,9.90
2022-12-08T18:45:50.194Z,9.40
2022-12-08T18:46:50.087Z,11.00
2022-12-08T18:47:50.061Z,10.10
2022-12-08T18:48:50.067Z,10.20
2022-12-08T18:49:50.127Z,12.60
2022-12-08T18:50:50.049Z,10.50
2022-12-08T18:51:50.036Z,10.20
2022-12-08T18:52:50.107Z,9.50
2022-12-08T18:53:50.058Z,9.60
2022-12-08T18:55:05.832Z,8.30
2022-12-08T18:55:52.033Z,9.20
2022-12-08T18:56:50.024Z,9.30
2022-12-08T18:57:50.013Z,9.90
2022-12-08T18:58:50.020Z,10.60
2022-12-08T18:59:49.998Z,10.00
2022-12-08T19:00:49.994Z,12.70
2022-12-08T19:01:50.071Z,11.10
2022-12-08T19:02:50.016Z,10.90
2022-12-08T19:04:19.953Z,9.40
2022-12-08T19:04:51.960Z,11.40
2022-12-08T19:05:49.942Z,7.90
2022-12-08T19:06:50.007Z,9.80
2022-12-08T19:07:49.994Z,8.30
2022-12-08T19:08:49.933Z,10.10
2022-12-08T19:09:49.971Z,8.90
2022-12-08T19:10:49.932Z,8.10
2022-12-08T19:11:49.931Z,9.70
2022-12-08T19:12:49.908Z,7.90
2022-12-08T19:13:49.895Z,12.30
2022-12-08T19:14:49.929Z,43.80
2022-12-08T19:15:49.964Z,20.60
2022-12-08T19:16:49.906Z,22.50
2022-12-08T19:17:49.869Z,25.00
2022-12-08T19:18:49.918Z,17.80
2022-12-08T19:19:49.869Z,11.10
2022-12-08T19:20:49.883Z,16.50
2022-12-08T19:21:49.843Z,11.40
2022-12-08T19:22:49.913Z,10.20
2022-12-08T19:23:49.847Z,13.20
2022-12-08T19:24:49.877Z,23.90
2022-12-08T19:25:49.793Z,16.80
2022-12-08T19:26:49.821Z,12.50
2022-12-08T19:27:49.802Z,16.10
2022-12-08T19:28:49.791Z,19.10
2022-12-08T19:29:49.850Z,12.40
2022-12-08T19:30:49.860Z,13.70
2022-12-08T19:31:49.860Z,13.00
2022-12-08T19:32:49.760Z,18.10
2022-12-08T19:33:49.746Z,16.10
2022-12-08T19:34:49.785Z,14.00
2022-12-08T19:35:52.700Z,15.80
2022-12-08T19:36:50.764Z,15.40
2022-12-08T19:37:49.746Z,13.20
2022-12-08T19:38:49.725Z,14.60
2022-12-08T19:39:49.748Z,15.30
2022-12-08T19:40:49.716Z,14.20
2022-12-08T19:41:49.710Z,12.30
2022-12-08T19:42:49.715Z,13.10
2022-12-08T19:43:49.689Z,12.70
2022-12-08T19:44:49.683Z,13.60
2022-12-08T19:45:49.761Z,12.20
2022-12-08T19:46:49.804Z,11.80
2022-12-08T19:47:49.679Z,12.90
2022-12-08T19:48:49.652Z,11.70
2022-12-08T19:49:49.674Z,14.30
2022-12-08T19:50:49.631Z,11.30
2022-12-08T19:51:49.650Z,14.20
2022-12-08T19:52:49.639Z,11.40
2022-12-08T19:53:49.626Z,13.90
2022-12-08T19:54:49.639Z,14.30
2022-12-08T19:55:49.611Z,13.70
2022-12-08T19:56:49.611Z,13.50
2022-12-08T19:57:52.822Z,12.60
2022-12-08T19:58:49.604Z,12.60
2022-12-08T19:59:56.027Z,14.50
2022-12-08T20:00:51.596Z,13.10
2022-12-08T20:01:49.699Z,16.80
2022-12-08T20:02:49.580Z,17.90
2022-12-08T20:03:49.547Z,17.60
2022-12-08T20:04:49.568Z,17.40
2022-12-08T20:05:49.553Z,19.00
2022-12-08T20:06:49.598Z,21.40
2022-12-08T20:07:49.556Z,21.90
2022-12-08T20:08:50.878Z,22.50
2022-12-08T20:09:50.520Z,17.30
2022-12-08T20:10:49.511Z,16.70
2022-12-08T20:11:49.606Z,16.30
2022-12-08T20:12:49.511Z,15.90
2022-12-08T20:13:49.480Z,13.80
2022-12-08T20:14:49.515Z,16.50
2022-12-08T20:15:49.551Z,15.80
2022-12-08T20:16:49.559Z,14.20
2022-12-08T20:17:49.882Z,14.20
2022-12-08T20:18:49.632Z,15.40
2022-12-08T20:19:49.489Z,17.80
2022-12-08T20:22:41.371Z,15.40
2022-12-08T20:24:34.825Z,17.70
2022-12-08T20:26:28.280Z,11.60
2022-12-08T20:28:21.736Z,11.50
2022-12-08T20:30:17.222Z,12.10
2022-12-08T20:32:11.065Z,15.10
2022-12-08T20:34:04.550Z,13.90
2022-12-08T20:34:39.865Z,14.50
2022-12-08T20:35:06.378Z,13.90
2022-12-08T20:36:06.047Z,13.20
2022-12-08T20:37:06.089Z,14.40
2022-12-08T20:38:06.064Z,15.00
2022-12-08T20:39:06.056Z,12.30
2022-12-08T20:40:06.018Z,11.70
2022-12-08T20:41:07.052Z,14.30
2022-12-08T20:42:05.977Z,12.00
2022-12-08T20:43:05.997Z,13.20
2022-12-08T20:44:06.041Z,13.80
2022-12-08T20:45:06.416Z,13.60
2022-12-08T20:46:06.030Z,13.30
2022-12-08T20:47:06.018Z,12.60
2022-12-08T20:48:06.006Z,12.90
2022-12-08T20:49:06.056Z,12.70
2022-12-08T20:50:06.154Z,14.30
2022-12-08T20:51:05.939Z,13.80
2022-12-08T20:52:05.917Z,15.20
2022-12-08T20:53:05.955Z,15.90
2022-12-08T20:54:06.092Z,15.50
2022-12-08T20:55:05.945Z,13.90
2022-12-08T20:56:06.077Z,13.90
2022-12-08T20:57:06.042Z,15.00
2022-12-08T20:58:05.879Z,15.00
2022-12-08T20:59:05.880Z,13.20
2022-12-08T21:00:06.385Z,14.50
2022-12-08T21:01:05.929Z,12.50
2022-12-08T21:02:05.998Z,13.70
2022-12-08T21:03:05.988Z,30.40
2022-12-08T21:04:06.682Z,23.40
2022-12-08T21:05:06.249Z,24.70
2022-12-08T21:06:05.956Z,22.10
2022-12-08T21:07:05.862Z,23.20
2022-12-08T21:08:05.886Z,18.90
2022-12-08T21:09:05.905Z,19.90
2022-12-08T21:10:06.155Z,18.20
2022-12-08T21:11:05.925Z,14.10
2022-12-08T21:12:05.833Z,16.90
2022-12-08T21:13:05.767Z,48.40
2022-12-08T21:14:05.938Z,43.60
2022-12-08T21:15:05.823Z,46.10
2022-12-08T21:16:05.995Z,72.20
2022-12-08T21:17:05.838Z,111.00
2022-12-08T21:18:05.814Z,93.80
2022-12-08T21:19:05.811Z,86.50
2022-12-08T21:20:06.319Z,86.90
2022-12-08T21:21:05.847Z,61.50
2022-12-08T21:22:05.693Z,59.20
2022-12-08T21:23:05.898Z,52.70
2022-12-08T21:24:05.765Z,34.10
2022-12-08T21:25:05.708Z,26.30
2022-12-08T21:26:05.702Z,25.10
2022-12-08T21:27:05.822Z,24.20
2022-12-08T21:28:05.888Z,22.20
2022-12-08T21:29:05.742Z,22.70
2022-12-08T21:30:06.266Z,20.80
2022-12-08T21:31:05.870Z,22.80
2022-12-08T21:32:05.788Z,21.70
2022-12-08T21:33:05.771Z,22.20
2022-12-08T21:34:06.707Z,22.20
2022-12-08T21:35:05.671Z,21.60
2022-12-08T21:36:05.641Z,23.60
2022-12-08T21:37:05.632Z,21.70
2022-12-08T21:38:05.816Z,23.80
2022-12-08T21:39:05.709Z,21.00
2022-12-08T21:40:06.204Z,21.30
2022-12-08T21:41:05.661Z,21.20
2022-12-08T21:42:05.625Z,19.10
2022-12-08T21:43:05.718Z,19.20
2022-12-08T21:44:05.705Z,19.90
2022-12-08T21:45:05.726Z,17.90
2022-12-08T21:46:08.742Z,17.10
2022-12-08T21:47:05.619Z,16.60
2022-12-08T21:48:10.872Z,18.60
2022-12-08T21:49:07.528Z,17.10
2022-12-08T21:50:07.461Z,14.70
2022-12-08T21:51:05.780Z,16.30
2022-12-08T21:52:05.602Z,17.30
2022-12-08T21:53:05.579Z,14.70
2022-12-08T21:54:05.550Z,15.60
2022-12-08T21:55:05.527Z,16.20
2022-12-08T21:56:05.604Z,15.70
2022-12-08T21:57:05.602Z,16.90
2022-12-08T21:58:05.605Z,16.50
2022-12-08T21:59:05.495Z,16.60
2022-12-08T22:00:06.127Z,14.70
2022-12-08T22:01:05.702Z,15.50
2022-12-08T22:02:05.636Z,16.80
2022-12-08T22:03:05.592Z,16.10
2022-12-08T22:04:05.525Z,16.50
2022-12-08T22:05:05.442Z,16.60
2022-12-08T22:06:05.489Z,15.70
2022-12-08T22:07:05.623Z,16.60
2022-12-08T22:08:06.485Z,16.90
2022-12-08T22:09:06.183Z,16.30
2022-12-08T22:10:05.785Z,16.20
2022-12-08T22:11:05.560Z,18.20
2022-12-08T22:12:05.376Z,19.20
2022-12-08T22:13:05.347Z,18.00
2022-12-08T22:14:08.353Z,19.20
2022-12-08T22:15:07.554Z,19.60
2022-12-08T22:16:05.539Z,18.20
2022-12-08T22:17:05.371Z,18.30
